sensor_id;sensor_type;location;lat;lon;timestamp;P1;durP1;ratioP1;P2;durP2;ratioP2
21554;SDS011;10938;44.794;-0.676;2023-04-03T00:02:16;5.60;;;1.73;;
21554;SDS011;10938;44.794;-0.676;2023-04-03T00:04:41;4.38;;;1.45;;
21554;SDS011;10938;44.794;-0.676;2023-04-03T00:07:07;5.00;;;1.45;;
21554;SDS011;10938;44.794;-0.676;2023-04-03T00:09:32;5.38;;;1.50;;
21554;SDS011;10938;44.794;-0.676;2023-04-03T00:11:57;7.57;;;1.73;;
21554;SDS011;10938;44.794;-0.676;2023-04-03T00:14:23;2.47;;;1.25;;
21554;SDS011;10938;44.794;-0.676;2023-04-03T00:16:48;6.05;;;1.88;;
21554;SDS011;10938;44.794;-0.676;2023-04-03T00:19:13;5.37;;;1.67;;
21554;SDS011;10938;44.794;-0.676;2023-04-03T00:21:38;5.70;;;1.73;;
21554;SDS011;10938;44.794;-0.676;2023-04-03T00:24:05;6.07;;;1.85;;
21554;SDS011;10938;44.794;-0.676;2023-04-03T00:26:30;7.30;;;1.33;;
21554;SDS011;10938;44.794;-0.676;2023-04-03T00:28:55;5.13;;;1.67;;
21554;SDS011;10938;44.794;-0.676;2023-04-03T00:31:21;3.58;;;1.60;;
21554;SDS011;10938;44.794;-0.676;2023-04-03T00:33:46;5.90;;;1.70;;
21554;SDS011;10938;44.794;-0.676;2023-04-03T00:36:11;8.77;;;2.37;;
21554;SDS011;10938;44.794;-0.676;2023-04-03T00:38:38;4.20;;;1.63;;
21554;SDS011;10938;44.794;-0.676;2023-04-03T00:41:03;7.63;;;1.83;;
21554;SDS011;10938;44.794;-0.676;2023-04-03T00:43:29;5.50;;;1.80;;
21554;SDS011;10938;44.794;-0.676;2023-04-03T00:45:55;5.30;;;1.98;;
21554;SDS011;10938;44.794;-0.676;2023-04-03T00:48:26;4.30;;;1.50;;
21554;SDS011;10938;44.794;-0.676;2023-04-03T00:50:52;5.05;;;1.58;;
21554;SDS011;10938;44.794;-0.676;2023-04-03T00:53:19;6.03;;;1.83;;
21554;SDS011;10938;44.794;-0.676;2023-04-03T00:55:47;5.72;;;1.40;;
21554;SDS011;10938;44.794;-0.676;2023-04-03T00:58:13;3.70;;;1.40;;
21554;SDS011;10938;44.794;-0.676;2023-04-03T01:00:40;3.45;;;1.50;;
21554;SDS011;10938;44.794;-0.676;2023-04-03T01:03:07;8.93;;;2.03;;
21554;SDS011;10938;44.794;-0.676;2023-04-03T01:05:33;7.35;;;1.60;;
21554;SDS011;10938;44.794;-0.676;2023-04-03T01:07:58;8.00;;;1.73;;
21554;SDS011;10938;44.794;-0.676;2023-04-03T01:10:24;5.60;;;1.88;;
21554;SDS011;10938;44.794;-0.676;2023-04-03T01:12:50;5.13;;;2.00;;
21554;SDS011;10938;44.794;-0.676;2023-04-03T01:15:25;4.35;;;1.88;;
21554;SDS011;10938;44.794;-0.676;2023-04-03T01:25:13;4.78;;;1.75;;
21554;SDS011;10938;44.794;-0.676;2023-04-03T01:27:38;5.20;;;2.00;;
21554;SDS011;10938;44.794;-0.676;2023-04-03T01:30:04;8.40;;;2.10;;
21554;SDS011;10938;44.794;-0.676;2023-04-03T01:32:29;4.70;;;1.92;;
21554;SDS011;10938;44.794;-0.676;2023-04-03T01:34:54;5.57;;;1.73;;
21554;SDS011;10938;44.794;-0.676;2023-04-03T01:37:20;3.35;;;1.70;;
21554;SDS011;10938;44.794;-0.676;2023-04-03T01:39:45;3.50;;;1.60;;
21554;SDS011;10938;44.794;-0.676;2023-04-03T01:42:10;2.93;;;1.80;;
21554;SDS011;10938;44.794;-0.676;2023-04-03T01:44:36;4.40;;;1.80;;
21554;SDS011;10938;44.794;-0.676;2023-04-03T01:47:01;3.00;;;1.73;;
21554;SDS011;10938;44.794;-0.676;2023-04-03T01:49:27;7.97;;;2.20;;
21554;SDS011;10938;44.794;-0.676;2023-04-03T01:51:52;2.42;;;1.70;;
21554;SDS011;10938;44.794;-0.676;2023-04-03T01:54:17;5.10;;;2.03;;
21554;SDS011;10938;44.794;-0.676;2023-04-03T01:56:43;4.75;;;1.70;;
21554;SDS011;10938;44.794;-0.676;2023-04-03T01:59:08;2.33;;;1.33;;
21554;SDS011;10938;44.794;-0.676;2023-04-03T02:01:33;3.78;;;1.80;;
21554;SDS011;10938;44.794;-0.676;2023-04-03T02:03:58;5.40;;;1.80;;
21554;SDS011;10938;44.794;-0.676;2023-04-03T02:06:24;3.13;;;1.60;;
21554;SDS011;10938;44.794;-0.676;2023-04-03T02:08:50;4.30;;;1.80;;
21554;SDS011;10938;44.794;-0.676;2023-04-03T02:11:15;3.13;;;1.80;;
21554;SDS011;10938;44.794;-0.676;2023-04-03T02:13:41;2.83;;;1.73;;
21554;SDS011;10938;44.794;-0.676;2023-04-03T02:16:07;3.17;;;1.70;;
21554;SDS011;10938;44.794;-0.676;2023-04-03T02:18:32;6.47;;;2.15;;
21554;SDS011;10938;44.794;-0.676;2023-04-03T02:20:57;5.97;;;2.00;;
21554;SDS011;10938;44.794;-0.676;2023-04-03T02:23:22;4.47;;;1.60;;
21554;SDS011;10938;44.794;-0.676;2023-04-03T02:25:48;2.17;;;1.50;;
21554;SDS011;10938;44.794;-0.676;2023-04-03T02:28:14;3.13;;;1.60;;
21554;SDS011;10938;44.794;-0.676;2023-04-03T02:30:39;2.17;;;1.60;;
21554;SDS011;10938;44.794;-0.676;2023-04-03T02:33:04;2.03;;;1.40;;
21554;SDS011;10938;44.794;-0.676;2023-04-03T02:35:30;2.90;;;1.70;;
21554;SDS011;10938;44.794;-0.676;2023-04-03T02:37:55;3.80;;;1.90;;
21554;SDS011;10938;44.794;-0.676;2023-04-03T02:40:20;2.28;;;1.58;;
21554;SDS011;10938;44.794;-0.676;2023-04-03T02:42:45;2.73;;;1.80;;
21554;SDS011;10938;44.794;-0.676;2023-04-03T02:45:11;3.03;;;1.70;;
21554;SDS011;10938;44.794;-0.676;2023-04-03T02:47:36;2.53;;;1.50;;
21554;SDS011;10938;44.794;-0.676;2023-04-03T02:50:03;3.03;;;1.65;;
21554;SDS011;10938;44.794;-0.676;2023-04-03T02:52:28;2.13;;;1.52;;
21554;SDS011;10938;44.794;-0.676;2023-04-03T02:54:54;2.40;;;1.73;;
21554;SDS011;10938;44.794;-0.676;2023-04-03T02:57:19;3.22;;;1.40;;
21554;SDS011;10938;44.794;-0.676;2023-04-03T02:59:44;3.38;;;1.60;;
21554;SDS011;10938;44.794;-0.676;2023-04-03T03:02:10;2.75;;;1.70;;
21554;SDS011;10938;44.794;-0.676;2023-04-03T03:04:35;3.83;;;1.90;;
21554;SDS011;10938;44.794;-0.676;2023-04-03T03:07:01;5.47;;;2.05;;
21554;SDS011;10938;44.794;-0.676;2023-04-03T03:09:26;3.00;;;1.80;;
21554;SDS011;10938;44.794;-0.676;2023-04-03T03:11:52;3.43;;;1.90;;
21554;SDS011;10938;44.794;-0.676;2023-04-03T03:14:17;5.82;;;2.20;;
21554;SDS011;10938;44.794;-0.676;2023-04-03T03:16:42;4.23;;;2.13;;
21554;SDS011;10938;44.794;-0.676;2023-04-03T03:19:07;4.80;;;2.00;;
21554;SDS011;10938;44.794;-0.676;2023-04-03T03:21:33;3.67;;;1.90;;
21554;SDS011;10938;44.794;-0.676;2023-04-03T03:23:58;5.68;;;2.33;;
21554;SDS011;10938;44.794;-0.676;2023-04-03T03:26:23;5.00;;;2.30;;
21554;SDS011;10938;44.794;-0.676;2023-04-03T03:28:50;4.63;;;2.17;;
21554;SDS011;10938;44.794;-0.676;2023-04-03T03:31:15;4.82;;;2.47;;
21554;SDS011;10938;44.794;-0.676;2023-04-03T03:33:41;3.70;;;2.20;;
21554;SDS011;10938;44.794;-0.676;2023-04-03T03:36:06;4.45;;;2.35;;
21554;SDS011;10938;44.794;-0.676;2023-04-03T03:38:31;4.78;;;2.78;;
21554;SDS011;10938;44.794;-0.676;2023-04-03T03:40:57;4.70;;;2.53;;
21554;SDS011;10938;44.794;-0.676;2023-04-03T03:43:22;3.00;;;2.38;;
21554;SDS011;10938;44.794;-0.676;2023-04-03T03:45:53;4.97;;;2.33;;
21554;SDS011;10938;44.794;-0.676;2023-04-03T03:48:19;3.05;;;2.22;;
21554;SDS011;10938;44.794;-0.676;2023-04-03T03:50:46;6.07;;;2.72;;
21554;SDS011;10938;44.794;-0.676;2023-04-03T03:53:11;5.05;;;2.63;;
21554;SDS011;10938;44.794;-0.676;2023-04-03T03:55:36;5.27;;;3.13;;
21554;SDS011;10938;44.794;-0.676;2023-04-03T03:58:02;9.83;;;2.93;;
21554;SDS011;10938;44.794;-0.676;2023-04-03T04:00:28;5.93;;;2.60;;
21554;SDS011;10938;44.794;-0.676;2023-04-03T04:02:53;6.30;;;2.78;;
21554;SDS011;10938;44.794;-0.676;2023-04-03T04:05:19;6.75;;;2.90;;
21554;SDS011;10938;44.794;-0.676;2023-04-03T04:07:44;5.10;;;2.80;;
21554;SDS011;10938;44.794;-0.676;2023-04-03T04:10:10;4.53;;;2.90;;
21554;SDS011;10938;44.794;-0.676;2023-04-03T04:12:35;5.43;;;2.85;;
21554;SDS011;10938;44.794;-0.676;2023-04-03T04:15:01;8.32;;;2.80;;
21554;SDS011;10938;44.794;-0.676;2023-04-03T04:17:26;8.13;;;2.33;;
21554;SDS011;10938;44.794;-0.676;2023-04-03T04:19:52;6.35;;;2.47;;
21554;SDS011;10938;44.794;-0.676;2023-04-03T04:22:17;3.97;;;2.70;;
21554;SDS011;10938;44.794;-0.676;2023-04-03T04:24:42;8.73;;;3.03;;
21554;SDS011;10938;44.794;-0.676;2023-04-03T04:27:07;8.05;;;3.33;;
21554;SDS011;10938;44.794;-0.676;2023-04-03T04:29:33;7.15;;;2.90;;
21554;SDS011;10938;44.794;-0.676;2023-04-03T04:32:01;4.95;;;2.80;;
21554;SDS011;10938;44.794;-0.676;2023-04-03T04:34:26;6.32;;;2.70;;
21554;SDS011;10938;44.794;-0.676;2023-04-03T04:36:51;7.50;;;2.87;;
21554;SDS011;10938;44.794;-0.676;2023-04-03T04:39:17;6.55;;;2.90;;
21554;SDS011;10938;44.794;-0.676;2023-04-03T04:41:42;10.47;;;3.17;;
21554;SDS011;10938;44.794;-0.676;2023-04-03T04:44:07;4.33;;;2.80;;
21554;SDS011;10938;44.794;-0.676;2023-04-03T04:46:33;6.55;;;3.60;;
21554;SDS011;10938;44.794;-0.676;2023-04-03T04:48:58;5.67;;;3.00;;
21554;SDS011;10938;44.794;-0.676;2023-04-03T04:51:23;9.00;;;2.90;;
21554;SDS011;10938;44.794;-0.676;2023-04-03T04:53:49;6.10;;;2.90;;
21554;SDS011;10938;44.794;-0.676;2023-04-03T04:56:14;7.77;;;2.90;;
21554;SDS011;10938;44.794;-0.676;2023-04-03T04:58:40;6.00;;;3.03;;
21554;SDS011;10938;44.794;-0.676;2023-04-03T05:01:06;4.60;;;2.92;;
21554;SDS011;10938;44.794;-0.676;2023-04-03T05:03:32;6.97;;;3.00;;
21554;SDS011;10938;44.794;-0.676;2023-04-03T05:05:57;6.53;;;3.17;;
21554;SDS011;10938;44.794;-0.676;2023-04-03T05:08:23;6.40;;;2.88;;
21554;SDS011;10938;44.794;-0.676;2023-04-03T05:10:48;6.95;;;3.10;;
21554;SDS011;10938;44.794;-0.676;2023-04-03T05:13:14;7.40;;;3.23;;
21554;SDS011;10938;44.794;-0.676;2023-04-03T05:15:39;5.07;;;3.28;;
21554;SDS011;10938;44.794;-0.676;2023-04-03T05:18:05;7.07;;;3.45;;
21554;SDS011;10938;44.794;-0.676;2023-04-03T05:20:30;5.35;;;3.15;;
21554;SDS011;10938;44.794;-0.676;2023-04-03T05:22:55;8.18;;;3.08;;
21554;SDS011;10938;44.794;-0.676;2023-04-03T05:25:21;5.67;;;3.20;;
21554;SDS011;10938;44.794;-0.676;2023-04-03T05:27:46;7.67;;;5.50;;
21554;SDS011;10938;44.794;-0.676;2023-04-03T05:30:11;7.27;;;3.73;;
21554;SDS011;10938;44.794;-0.676;2023-04-03T05:32:37;6.05;;;3.50;;
21554;SDS011;10938;44.794;-0.676;2023-04-03T05:35:02;7.32;;;3.55;;
21554;SDS011;10938;44.794;-0.676;2023-04-03T05:37:27;5.35;;;3.05;;
21554;SDS011;10938;44.794;-0.676;2023-04-03T05:39:53;4.63;;;3.03;;
21554;SDS011;10938;44.794;-0.676;2023-04-03T05:42:18;6.38;;;3.00;;
21554;SDS011;10938;44.794;-0.676;2023-04-03T05:44:43;7.53;;;3.13;;
21554;SDS011;10938;44.794;-0.676;2023-04-03T05:47:11;9.52;;;3.38;;
21554;SDS011;10938;44.794;-0.676;2023-04-03T05:49:36;5.97;;;3.10;;
21554;SDS011;10938;44.794;-0.676;2023-04-03T05:52:05;7.35;;;2.97;;
21554;SDS011;10938;44.794;-0.676;2023-04-03T05:54:30;7.43;;;3.50;;
21554;SDS011;10938;44.794;-0.676;2023-04-03T05:56:56;7.50;;;3.23;;
21554;SDS011;10938;44.794;-0.676;2023-04-03T05:59:21;9.80;;;3.60;;
21554;SDS011;10938;44.794;-0.676;2023-04-03T06:01:47;8.40;;;3.30;;
21554;SDS011;10938;44.794;-0.676;2023-04-03T06:04:12;7.55;;;3.20;;
21554;SDS011;10938;44.794;-0.676;2023-04-03T06:06:56;7.50;;;3.42;;
21554;SDS011;10938;44.794;-0.676;2023-04-03T06:09:22;9.05;;;4.13;;
21554;SDS011;10938;44.794;-0.676;2023-04-03T06:11:47;7.10;;;3.42;;
21554;SDS011;10938;44.794;-0.676;2023-04-03T06:14:16;9.80;;;3.78;;
21554;SDS011;10938;44.794;-0.676;2023-04-03T06:16:41;5.97;;;2.95;;
21554;SDS011;10938;44.794;-0.676;2023-04-03T06:19:11;6.82;;;3.35;;
21554;SDS011;10938;44.794;-0.676;2023-04-03T06:21:36;6.82;;;3.38;;
21554;SDS011;10938;44.794;-0.676;2023-04-03T06:24:03;10.00;;;3.70;;
21554;SDS011;10938;44.794;-0.676;2023-04-03T06:26:28;6.88;;;3.55;;
21554;SDS011;10938;44.794;-0.676;2023-04-03T06:28:53;6.88;;;3.45;;
21554;SDS011;10938;44.794;-0.676;2023-04-03T06:31:19;12.07;;;3.45;;
21554;SDS011;10938;44.794;-0.676;2023-04-03T06:33:44;9.93;;;3.47;;
21554;SDS011;10938;44.794;-0.676;2023-04-03T06:36:10;6.35;;;2.70;;
21554;SDS011;10938;44.794;-0.676;2023-04-03T06:38:35;6.70;;;2.97;;
21554;SDS011;10938;44.794;-0.676;2023-04-03T06:41:01;7.10;;;3.42;;
21554;SDS011;10938;44.794;-0.676;2023-04-03T06:43:26;7.70;;;2.87;;
21554;SDS011;10938;44.794;-0.676;2023-04-03T06:45:51;5.72;;;2.72;;
21554;SDS011;10938;44.794;-0.676;2023-04-03T06:48:17;4.72;;;2.55;;
21554;SDS011;10938;44.794;-0.676;2023-04-03T06:50:42;8.10;;;3.08;;
21554;SDS011;10938;44.794;-0.676;2023-04-03T06:53:08;5.97;;;2.47;;
21554;SDS011;10938;44.794;-0.676;2023-04-03T06:55:34;5.55;;;2.80;;
21554;SDS011;10938;44.794;-0.676;2023-04-03T06:57:59;4.83;;;2.50;;
21554;SDS011;10938;44.794;-0.676;2023-04-03T07:00:24;6.10;;;2.93;;
21554;SDS011;10938;44.794;-0.676;2023-04-03T07:02:50;6.82;;;2.72;;
21554;SDS011;10938;44.794;-0.676;2023-04-03T07:05:15;9.80;;;2.63;;
21554;SDS011;10938;44.794;-0.676;2023-04-03T07:07:40;5.72;;;2.60;;
21554;SDS011;10938;44.794;-0.676;2023-04-03T07:10:09;6.07;;;2.50;;
21554;SDS011;10938;44.794;-0.676;2023-04-03T07:12:35;4.75;;;2.33;;
21554;SDS011;10938;44.794;-0.676;2023-04-03T07:15:00;5.90;;;2.40;;
21554;SDS011;10938;44.794;-0.676;2023-04-03T07:17:26;6.93;;;2.58;;
21554;SDS011;10938;44.794;-0.676;2023-04-03T07:19:51;5.43;;;2.08;;
21554;SDS011;10938;44.794;-0.676;2023-04-03T07:22:17;9.17;;;2.97;;
21554;SDS011;10938;44.794;-0.676;2023-04-03T07:24:42;7.78;;;2.33;;
21554;SDS011;10938;44.794;-0.676;2023-04-03T07:27:08;8.05;;;2.42;;
21554;SDS011;10938;44.794;-0.676;2023-04-03T07:29:34;4.68;;;2.40;;
21554;SDS011;10938;44.794;-0.676;2023-04-03T07:31:59;6.93;;;2.50;;
21554;SDS011;10938;44.794;-0.676;2023-04-03T07:34:24;8.05;;;2.35;;
21554;SDS011;10938;44.794;-0.676;2023-04-03T07:36:50;6.47;;;2.45;;
21554;SDS011;10938;44.794;-0.676;2023-04-03T07:39:15;7.30;;;2.47;;
21554;SDS011;10938;44.794;-0.676;2023-04-03T07:41:40;11.53;;;2.50;;
21554;SDS011;10938;44.794;-0.676;2023-04-03T07:44:06;6.65;;;2.95;;
21554;SDS011;10938;44.794;-0.676;2023-04-03T07:46:31;9.60;;;2.58;;
21554;SDS011;10938;44.794;-0.676;2023-04-03T07:48:56;6.90;;;2.70;;
21554;SDS011;10938;44.794;-0.676;2023-04-03T07:51:22;6.65;;;2.45;;
21554;SDS011;10938;44.794;-0.676;2023-04-03T07:53:48;7.47;;;2.60;;
21554;SDS011;10938;44.794;-0.676;2023-04-03T07:56:17;4.63;;;2.13;;
21554;SDS011;10938;44.794;-0.676;2023-04-03T07:58:42;7.82;;;3.15;;
21554;SDS011;10938;44.794;-0.676;2023-04-03T08:01:07;6.53;;;2.70;;
21554;SDS011;10938;44.794;-0.676;2023-04-03T08:03:33;7.22;;;2.50;;
21554;SDS011;10938;44.794;-0.676;2023-04-03T08:06:04;9.23;;;3.20;;
21554;SDS011;10938;44.794;-0.676;2023-04-03T08:08:30;6.82;;;3.15;;
21554;SDS011;10938;44.794;-0.676;2023-04-03T08:10:57;9.20;;;2.83;;
21554;SDS011;10938;44.794;-0.676;2023-04-03T08:13:23;9.20;;;3.10;;
21554;SDS011;10938;44.794;-0.676;2023-04-03T08:15:48;7.87;;;2.73;;
21554;SDS011;10938;44.794;-0.676;2023-04-03T08:18:14;6.95;;;2.72;;
21554;SDS011;10938;44.794;-0.676;2023-04-03T08:20:40;10.77;;;3.53;;
21554;SDS011;10938;44.794;-0.676;2023-04-03T08:23:06;7.83;;;2.97;;
21554;SDS011;10938;44.794;-0.676;2023-04-03T08:25:31;8.38;;;2.78;;
21554;SDS011;10938;44.794;-0.676;2023-04-03T08:27:56;6.77;;;2.60;;
21554;SDS011;10938;44.794;-0.676;2023-04-03T08:30:22;9.30;;;3.47;;
21554;SDS011;10938;44.794;-0.676;2023-04-03T08:32:47;6.03;;;2.10;;
21554;SDS011;10938;44.794;-0.676;2023-04-03T08:35:12;10.25;;;2.78;;
21554;SDS011;10938;44.794;-0.676;2023-04-03T08:37:39;10.70;;;2.63;;
21554;SDS011;10938;44.794;-0.676;2023-04-03T08:40:05;8.77;;;2.70;;
21554;SDS011;10938;44.794;-0.676;2023-04-03T08:47:53;8.33;;;2.90;;
21554;SDS011;10938;44.794;-0.676;2023-04-03T08:50:22;9.65;;;2.70;;
21554;SDS011;10938;44.794;-0.676;2023-04-03T08:52:50;6.32;;;2.78;;
21554;SDS011;10938;44.794;-0.676;2023-04-03T08:57:45;8.25;;;3.10;;
21554;SDS011;10938;44.794;-0.676;2023-04-03T09:02:46;6.43;;;2.90;;
21554;SDS011;10938;44.794;-0.676;2023-04-03T09:05:13;8.90;;;2.92;;
21554;SDS011;10938;44.794;-0.676;2023-04-03T09:07:42;8.85;;;2.85;;
21554;SDS011;10938;44.794;-0.676;2023-04-03T09:10:13;6.13;;;2.40;;
21554;SDS011;10938;44.794;-0.676;2023-04-03T09:12:41;8.05;;;2.45;;
21554;SDS011;10938;44.794;-0.676;2023-04-03T09:15:21;7.75;;;2.40;;
21554;SDS011;10938;44.794;-0.676;2023-04-03T09:26:23;7.75;;;2.47;;
21554;SDS011;10938;44.794;-0.676;2023-04-03T09:28:51;6.40;;;2.33;;
21554;SDS011;10938;44.794;-0.676;2023-04-03T09:31:19;8.15;;;2.55;;
21554;SDS011;10938;44.794;-0.676;2023-04-03T09:33:45;6.63;;;2.17;;
21554;SDS011;10938;44.794;-0.676;2023-04-03T09:36:12;9.48;;;2.40;;
21554;SDS011;10938;44.794;-0.676;2023-04-03T09:38:38;8.80;;;2.25;;
21554;SDS011;10938;44.794;-0.676;2023-04-03T09:41:05;10.50;;;2.90;;
21554;SDS011;10938;44.794;-0.676;2023-04-03T09:43:31;10.07;;;2.65;;
21554;SDS011;10938;44.794;-0.676;2023-04-03T09:46:24;7.65;;;2.03;;
21554;SDS011;10938;44.794;-0.676;2023-04-03T09:48:51;6.82;;;2.25;;
21554;SDS011;10938;44.794;-0.676;2023-04-03T09:51:17;10.57;;;2.63;;
21554;SDS011;10938;44.794;-0.676;2023-04-03T09:53:43;7.97;;;2.28;;
21554;SDS011;10938;44.794;-0.676;2023-04-03T09:58:40;6.93;;;2.00;;
21554;SDS011;10938;44.794;-0.676;2023-04-03T10:01:09;10.18;;;2.25;;
21554;SDS011;10938;44.794;-0.676;2023-04-03T10:03:45;8.40;;;2.65;;
21554;SDS011;10938;44.794;-0.676;2023-04-03T10:06:31;9.60;;;2.60;;
21554;SDS011;10938;44.794;-0.676;2023-04-03T10:09:00;8.07;;;2.30;;
21554;SDS011;10938;44.794;-0.676;2023-04-03T10:11:29;5.38;;;2.00;;
21554;SDS011;10938;44.794;-0.676;2023-04-03T10:13:58;5.28;;;2.10;;
21554;SDS011;10938;44.794;-0.676;2023-04-03T10:16:47;7.68;;;2.53;;
21554;SDS011;10938;44.794;-0.676;2023-04-03T10:21:47;7.32;;;1.92;;
21554;SDS011;10938;44.794;-0.676;2023-04-03T10:24:18;7.03;;;2.25;;
21554;SDS011;10938;44.794;-0.676;2023-04-03T10:32:10;7.75;;;2.25;;
21554;SDS011;10938;44.794;-0.676;2023-04-03T10:34:44;7.38;;;1.98;;
21554;SDS011;10938;44.794;-0.676;2023-04-03T10:37:29;6.82;;;2.33;;
21554;SDS011;10938;44.794;-0.676;2023-04-03T10:43:02;8.38;;;2.30;;
21554;SDS011;10938;44.794;-0.676;2023-04-03T10:48:16;5.32;;;2.38;;
21554;SDS011;10938;44.794;-0.676;2023-04-03T10:53:29;11.05;;;2.65;;
21554;SDS011;10938;44.794;-0.676;2023-04-03T10:56:01;7.93;;;2.47;;
21554;SDS011;10938;44.794;-0.676;2023-04-03T10:58:35;5.30;;;2.22;;
21554;SDS011;10938;44.794;-0.676;2023-04-03T11:01:02;8.10;;;2.03;;
21554;SDS011;10938;44.794;-0.676;2023-04-03T11:03:32;7.55;;;2.35;;
21554;SDS011;10938;44.794;-0.676;2023-04-03T11:05:59;5.40;;;1.92;;
21554;SDS011;10938;44.794;-0.676;2023-04-03T11:11:10;5.65;;;1.83;;
21554;SDS011;10938;44.794;-0.676;2023-04-03T11:13:39;9.05;;;2.30;;
21554;SDS011;10938;44.794;-0.676;2023-04-03T11:16:07;6.07;;;2.00;;
21554;SDS011;10938;44.794;-0.676;2023-04-03T11:18:54;5.05;;;2.47;;
21554;SDS011;10938;44.794;-0.676;2023-04-03T11:23:46;7.38;;;2.10;;
21554;SDS011;10938;44.794;-0.676;2023-04-03T11:26:21;8.20;;;2.80;;
21554;SDS011;10938;44.794;-0.676;2023-04-03T11:28:58;7.05;;;1.88;;
21554;SDS011;10938;44.794;-0.676;2023-04-03T11:33:54;5.70;;;2.10;;
21554;SDS011;10938;44.794;-0.676;2023-04-03T11:36:23;6.18;;;1.90;;
21554;SDS011;10938;44.794;-0.676;2023-04-03T11:38:51;6.13;;;1.85;;
21554;SDS011;10938;44.794;-0.676;2023-04-03T11:41:17;6.68;;;2.60;;
21554;SDS011;10938;44.794;-0.676;2023-04-03T11:43:56;5.28;;;2.05;;
21554;SDS011;10938;44.794;-0.676;2023-04-03T11:46:22;4.35;;;1.77;;
21554;SDS011;10938;44.794;-0.676;2023-04-03T11:48:51;3.80;;;1.70;;
21554;SDS011;10938;44.794;-0.676;2023-04-03T11:53:45;5.45;;;1.95;;
21554;SDS011;10938;44.794;-0.676;2023-04-03T12:01:48;6.03;;;2.13;;
21554;SDS011;10938;44.794;-0.676;2023-04-03T12:04:14;5.13;;;1.70;;
21554;SDS011;10938;44.794;-0.676;2023-04-03T12:11:51;6.22;;;1.80;;
21554;SDS011;10938;44.794;-0.676;2023-04-03T12:14:17;4.68;;;2.08;;
21554;SDS011;10938;44.794;-0.676;2023-04-03T12:16:43;5.35;;;2.08;;
21554;SDS011;10938;44.794;-0.676;2023-04-03T12:24:30;4.32;;;1.35;;
21554;SDS011;10938;44.794;-0.676;2023-04-03T12:34:27;6.57;;;1.85;;
21554;SDS011;10938;44.794;-0.676;2023-04-03T12:39:41;3.77;;;1.70;;
21554;SDS011;10938;44.794;-0.676;2023-04-03T12:47:23;5.10;;;1.90;;
21554;SDS011;10938;44.794;-0.676;2023-04-03T12:49:50;5.72;;;2.00;;
21554;SDS011;10938;44.794;-0.676;2023-04-03T12:52:40;5.13;;;1.63;;
21554;SDS011;10938;44.794;-0.676;2023-04-03T12:55:03;6.50;;;2.10;;
21554;SDS011;10938;44.794;-0.676;2023-04-03T12:57:29;3.92;;;1.75;;
21554;SDS011;10938;44.794;-0.676;2023-04-03T12:59:55;6.07;;;1.75;;
21554;SDS011;10938;44.794;-0.676;2023-04-03T13:04:53;3.08;;;1.35;;
21554;SDS011;10938;44.794;-0.676;2023-04-03T13:07:28;4.53;;;1.70;;
21554;SDS011;10938;44.794;-0.676;2023-04-03T13:10:19;4.65;;;1.65;;
21554;SDS011;10938;44.794;-0.676;2023-04-03T13:12:52;3.00;;;1.70;;
21554;SDS011;10938;44.794;-0.676;2023-04-03T13:15:26;5.43;;;1.67;;
21554;SDS011;10938;44.794;-0.676;2023-04-03T13:17:52;3.53;;;1.88;;
21554;SDS011;10938;44.794;-0.676;2023-04-03T13:20:22;6.47;;;2.13;;
21554;SDS011;10938;44.794;-0.676;2023-04-03T13:22:52;4.70;;;1.77;;
21554;SDS011;10938;44.794;-0.676;2023-04-03T13:25:18;5.55;;;1.98;;
21554;SDS011;10938;44.794;-0.676;2023-04-03T13:27:45;5.63;;;1.88;;
21554;SDS011;10938;44.794;-0.676;2023-04-03T13:30:25;5.38;;;1.70;;
21554;SDS011;10938;44.794;-0.676;2023-04-03T13:32:51;5.05;;;1.90;;
21554;SDS011;10938;44.794;-0.676;2023-04-03T13:37:55;3.63;;;1.67;;
21554;SDS011;10938;44.794;-0.676;2023-04-03T13:40:20;3.95;;;1.85;;
21554;SDS011;10938;44.794;-0.676;2023-04-03T13:42:45;4.60;;;1.97;;
21554;SDS011;10938;44.794;-0.676;2023-04-03T13:45:27;5.22;;;1.45;;
21554;SDS011;10938;44.794;-0.676;2023-04-03T13:48:09;6.47;;;1.80;;
21554;SDS011;10938;44.794;-0.676;2023-04-03T13:50:48;4.03;;;1.50;;
21554;SDS011;10938;44.794;-0.676;2023-04-03T13:53:14;5.05;;;1.80;;
21554;SDS011;10938;44.794;-0.676;2023-04-03T13:58:27;4.70;;;1.92;;
21554;SDS011;10938;44.794;-0.676;2023-04-03T14:05:53;3.50;;;1.67;;
21554;SDS011;10938;44.794;-0.676;2023-04-03T14:08:18;3.92;;;1.50;;
21554;SDS011;10938;44.794;-0.676;2023-04-03T14:10:44;4.25;;;1.40;;
21554;SDS011;10938;44.794;-0.676;2023-04-03T14:13:13;3.50;;;1.60;;
21554;SDS011;10938;44.794;-0.676;2023-04-03T14:15:39;3.95;;;1.70;;
21554;SDS011;10938;44.794;-0.676;2023-04-03T14:18:05;3.70;;;1.83;;
21554;SDS011;10938;44.794;-0.676;2023-04-03T14:20:31;6.93;;;1.67;;
21554;SDS011;10938;44.794;-0.676;2023-04-03T14:22:56;5.38;;;1.67;;
21554;SDS011;10938;44.794;-0.676;2023-04-03T14:25:22;4.75;;;1.95;;
21554;SDS011;10938;44.794;-0.676;2023-04-03T14:27:49;4.90;;;1.50;;
21554;SDS011;10938;44.794;-0.676;2023-04-03T14:30:17;9.43;;;1.73;;
21554;SDS011;10938;44.794;-0.676;2023-04-03T14:32:42;7.13;;;1.60;;
21554;SDS011;10938;44.794;-0.676;2023-04-03T14:35:07;3.90;;;1.83;;
21554;SDS011;10938;44.794;-0.676;2023-04-03T14:37:33;3.10;;;1.58;;
21554;SDS011;10938;44.794;-0.676;2023-04-03T14:39:59;4.13;;;1.48;;
21554;SDS011;10938;44.794;-0.676;2023-04-03T14:42:29;6.50;;;1.67;;
21554;SDS011;10938;44.794;-0.676;2023-04-03T14:44:56;4.05;;;1.60;;
21554;SDS011;10938;44.794;-0.676;2023-04-03T14:47:23;3.30;;;1.40;;
21554;SDS011;10938;44.794;-0.676;2023-04-03T14:49:49;5.57;;;1.50;;
21554;SDS011;10938;44.794;-0.676;2023-04-03T14:54:43;5.60;;;1.50;;
21554;SDS011;10938;44.794;-0.676;2023-04-03T14:57:08;3.13;;;1.70;;
21554;SDS011;10938;44.794;-0.676;2023-04-03T14:59:34;4.20;;;1.52;;
21554;SDS011;10938;44.794;-0.676;2023-04-03T15:01:59;4.13;;;1.73;;
21554;SDS011;10938;44.794;-0.676;2023-04-03T15:04:25;6.20;;;1.67;;
21554;SDS011;10938;44.794;-0.676;2023-04-03T15:06:50;3.15;;;1.48;;
21554;SDS011;10938;44.794;-0.676;2023-04-03T15:11:44;4.03;;;1.45;;
21554;SDS011;10938;44.794;-0.676;2023-04-03T15:14:10;4.45;;;1.17;;
21554;SDS011;10938;44.794;-0.676;2023-04-03T15:16:35;5.27;;;1.70;;
21554;SDS011;10938;44.794;-0.676;2023-04-03T15:19:00;4.43;;;1.30;;
21554;SDS011;10938;44.794;-0.676;2023-04-03T15:21:26;6.00;;;1.50;;
21554;SDS011;10938;44.794;-0.676;2023-04-03T15:23:51;3.50;;;1.40;;
21554;SDS011;10938;44.794;-0.676;2023-04-03T15:26:16;3.03;;;1.50;;
21554;SDS011;10938;44.794;-0.676;2023-04-03T15:28:41;2.60;;;1.27;;
21554;SDS011;10938;44.794;-0.676;2023-04-03T15:31:07;4.82;;;1.30;;
21554;SDS011;10938;44.794;-0.676;2023-04-03T15:33:32;4.47;;;1.50;;
21554;SDS011;10938;44.794;-0.676;2023-04-03T15:35:58;1.77;;;1.10;;
21554;SDS011;10938;44.794;-0.676;2023-04-03T15:38:24;3.75;;;1.50;;
21554;SDS011;10938;44.794;-0.676;2023-04-03T15:40:49;3.88;;;1.60;;
21554;SDS011;10938;44.794;-0.676;2023-04-03T15:43:15;5.53;;;1.83;;
21554;SDS011;10938;44.794;-0.676;2023-04-03T15:45:40;2.05;;;1.58;;
21554;SDS011;10938;44.794;-0.676;2023-04-03T15:48:06;4.43;;;1.75;;
21554;SDS011;10938;44.794;-0.676;2023-04-03T15:50:33;2.50;;;1.27;;
21554;SDS011;10938;44.794;-0.676;2023-04-03T15:52:58;2.75;;;1.33;;
21554;SDS011;10938;44.794;-0.676;2023-04-03T15:55:25;6.13;;;1.65;;
21554;SDS011;10938;44.794;-0.676;2023-04-03T15:57:51;3.97;;;1.40;;
21554;SDS011;10938;44.794;-0.676;2023-04-03T16:00:16;2.92;;;1.30;;
21554;SDS011;10938;44.794;-0.676;2023-04-03T16:02:42;2.15;;;1.20;;
21554;SDS011;10938;44.794;-0.676;2023-04-03T16:05:08;4.47;;;1.52;;
21554;SDS011;10938;44.794;-0.676;2023-04-03T16:07:34;2.58;;;1.55;;
21554;SDS011;10938;44.794;-0.676;2023-04-03T16:09:59;2.13;;;1.55;;
21554;SDS011;10938;44.794;-0.676;2023-04-03T16:12:25;4.65;;;1.70;;
21554;SDS011;10938;44.794;-0.676;2023-04-03T16:14:52;4.20;;;2.20;;
21554;SDS011;10938;44.794;-0.676;2023-04-03T16:17:18;2.80;;;1.80;;